sensor_id;sensor_type;location;lat;lon;timestamp;temperature;humidity
55083;DHT22;40978;52.850;6.506;2022-10-16T00:01:21;11.40;99.90
55083;DHT22;40978;52.850;6.506;2022-10-16T00:03:48;11.30;99.90
55083;DHT22;40978;52.850;6.506;2022-10-16T00:06:16;11.30;99.90
55083;DHT22;40978;52.850;6.506;2022-10-16T00:08:42;11.30;99.90
55083;DHT22;40978;52.850;6.506;2022-10-16T00:11:19;11.40;99.90
55083;DHT22;40978;52.850;6.506;2022-10-16T00:13:47;11.40;99.90
55083;DHT22;40978;52.850;6.506;2022-10-16T00:16:14;11.30;99.90
55083;DHT22;40978;52.850;6.506;2022-10-16T00:18:40;11.40;99.90
55083;DHT22;40978;52.850;6.506;2022-10-16T00:21:26;11.30;99.90
55083;DHT22;40978;52.850;6.506;2022-10-16T00:24:05;11.40;99.90
55083;DHT22;40978;52.850;6.506;2022-10-16T00:26:33;11.30;99.90
55083;DHT22;40978;52.850;6.506;2022-10-16T00:28:59;11.30;99.90
55083;DHT22;40978;52.850;6.506;2022-10-16T00:31:25;11.40;99.90
55083;DHT22;40978;52.850;6.506;2022-10-16T00:33:51;11.40;99.90
55083;DHT22;40978;52.850;6.506;2022-10-16T00:36:20;11.40;99.90
55083;DHT22;40978;52.850;6.506;2022-10-16T00:38:46;11.30;99.90
55083;DHT22;40978;52.850;6.506;2022-10-16T00:41:15;11.40;99.90
55083;DHT22;40978;52.850;6.506;2022-10-16T00:43:43;11.30;99.90
55083;DHT22;40978;52.850;6.506;2022-10-16T00:49:04;11.40;99.90
55083;DHT22;40978;52.850;6.506;2022-10-16T00:51:42;11.40;99.90
55083;DHT22;40978;52.850;6.506;2022-10-16T00:54:16;11.40;99.90
55083;DHT22;40978;52.850;6.506;2022-10-16T00:56:44;11.40;99.90
55083;DHT22;40978;52.850;6.506;2022-10-16T00:59:29;11.40;99.90
55083;DHT22;40978;52.850;6.506;2022-10-16T01:01:56;11.40;99.90
55083;DHT22;40978;52.850;6.506;2022-10-16T01:04:23;11.40;99.90
55083;DHT22;40978;52.850;6.506;2022-10-16T01:07:06;11.50;99.90
55083;DHT22;40978;52.850;6.506;2022-10-16T01:12:50;11.60;99.90
55083;DHT22;40978;52.850;6.506;2022-10-16T01:15:38;11.60;99.90
55083;DHT22;40978;52.850;6.506;2022-10-16T01:21:01;11.70;99.90
55083;DHT22;40978;52.850;6.506;2022-10-16T01:27:15;11.80;99.90
55083;DHT22;40978;52.850;6.506;2022-10-16T01:29:53;11.80;99.90
55083;DHT22;40978;52.850;6.506;2022-10-16T01:32:35;11.80;99.90
55083;DHT22;40978;52.850;6.506;2022-10-16T01:35:03;11.80;99.90
55083;DHT22;40978;52.850;6.506;2022-10-16T01:40:16;11.90;99.90
55083;DHT22;40978;52.850;6.506;2022-10-16T01:42:48;11.90;99.90
55083;DHT22;40978;52.850;6.506;2022-10-16T01:45:17;11.90;99.90
55083;DHT22;40978;52.850;6.506;2022-10-16T01:47:45;11.90;99.90
55083;DHT22;40978;52.850;6.506;2022-10-16T01:50:12;11.90;99.90
55083;DHT22;40978;52.850;6.506;2022-10-16T01:52:43;12.00;99.90
55083;DHT22;40978;52.850;6.506;2022-10-16T01:55:13;12.00;99.90
55083;DHT22;40978;52.850;6.506;2022-10-16T01:57:43;12.00;99.90
55083;DHT22;40978;52.850;6.506;2022-10-16T02:00:12;12.00;99.90
55083;DHT22;40978;52.850;6.506;2022-10-16T02:02:41;12.00;99.90
55083;DHT22;40978;52.850;6.506;2022-10-16T02:05:20;11.90;99.90
55083;DHT22;40978;52.850;6.506;2022-10-16T02:07:47;11.90;99.90
55083;DHT22;40978;52.850;6.506;2022-10-16T02:10:13;11.90;99.90
55083;DHT22;40978;52.850;6.506;2022-10-16T02:12:42;11.80;99.90
55083;DHT22;40978;52.850;6.506;2022-10-16T02:15:09;11.90;99.90
55083;DHT22;40978;52.850;6.506;2022-10-16T02:17:35;11.90;99.90
55083;DHT22;40978;52.850;6.506;2022-10-16T02:20:01;11.90;99.90
55083;DHT22;40978;52.850;6.506;2022-10-16T02:22:36;11.90;99.90
55083;DHT22;40978;52.850;6.506;2022-10-16T02:25:22;11.90;99.90
55083;DHT22;40978;52.850;6.506;2022-10-16T02:28:06;12.00;99.90
55083;DHT22;40978;52.850;6.506;2022-10-16T02:31:17;12.00;99.90
55083;DHT22;40978;52.850;6.506;2022-10-16T02:33:24;12.00;99.90
55083;DHT22;40978;52.850;6.506;2022-10-16T02:35:51;12.00;99.90
55083;DHT22;40978;52.850;6.506;2022-10-16T02:38:18;12.00;99.90
55083;DHT22;40978;52.850;6.506;2022-10-16T02:40:44;12.00;99.90
55083;DHT22;40978;52.850;6.506;2022-10-16T02:43:10;12.10;99.90
55083;DHT22;40978;52.850;6.506;2022-10-16T02:45:37;12.10;99.90
55083;DHT22;40978;52.850;6.506;2022-10-16T02:48:03;12.10;99.90
55083;DHT22;40978;52.850;6.506;2022-10-16T02:50:28;12.10;99.90
55083;DHT22;40978;52.850;6.506;2022-10-16T02:52:54;12.10;99.90
55083;DHT22;40978;52.850;6.506;2022-10-16T02:55:20;12.10;99.90
55083;DHT22;40978;52.850;6.506;2022-10-16T02:57:45;12.10;99.90
55083;DHT22;40978;52.850;6.506;2022-10-16T03:00:13;12.10;99.90
55083;DHT22;40978;52.850;6.506;2022-10-16T03:02:40;12.10;99.90
55083;DHT22;40978;52.850;6.506;2022-10-16T03:05:07;12.10;99.90
55083;DHT22;40978;52.850;6.506;2022-10-16T03:07:32;12.10;99.90
55083;DHT22;40978;52.850;6.506;2022-10-16T03:09:58;12.10;99.90
55083;DHT22;40978;52.850;6.506;2022-10-16T03:12:28;12.00;99.90
55083;DHT22;40978;52.850;6.506;2022-10-16T03:14:54;12.00;99.90
55083;DHT22;40978;52.850;6.506;2022-10-16T03:17:20;12.00;99.90
55083;DHT22;40978;52.850;6.506;2022-10-16T03:19:46;12.00;99.90
55083;DHT22;40978;52.850;6.506;2022-10-16T03:22:11;12.00;99.90
55083;DHT22;40978;52.850;6.506;2022-10-16T03:24:37;12.00;99.90
55083;DHT22;40978;52.850;6.506;2022-10-16T03:27:03;12.10;99.90
55083;DHT22;40978;52.850;6.506;2022-10-16T03:29:29;12.00;99.90
55083;DHT22;40978;52.850;6.506;2022-10-16T03:31:56;12.00;99.90
55083;DHT22;40978;52.850;6.506;2022-10-16T03:34:22;12.00;99.90
55083;DHT22;40978;52.850;6.506;2022-10-16T03:36:48;12.00;99.90
55083;DHT22;40978;52.850;6.506;2022-10-16T03:39:14;12.00;99.90
55083;DHT22;40978;52.850;6.506;2022-10-16T03:41:39;12.10;99.90
55083;DHT22;40978;52.850;6.506;2022-10-16T03:44:05;12.10;99.90
55083;DHT22;40978;52.850;6.506;2022-10-16T03:46:31;12.10;99.90
55083;DHT22;40978;52.850;6.506;2022-10-16T03:48:56;12.10;99.90
55083;DHT22;40978;52.850;6.506;2022-10-16T03:51:22;12.10;99.90
55083;DHT22;40978;52.850;6.506;2022-10-16T03:53:48;12.10;99.90
55083;DHT22;40978;52.850;6.506;2022-10-16T03:56:13;12.10;99.90
55083;DHT22;40978;52.850;6.506;2022-10-16T03:58:39;12.00;99.90
55083;DHT22;40978;52.850;6.506;2022-10-16T04:01:05;12.00;99.90
55083;DHT22;40978;52.850;6.506;2022-10-16T04:03:30;11.90;99.90
55083;DHT22;40978;52.850;6.506;2022-10-16T04:05:56;12.00;99.90
55083;DHT22;40978;52.850;6.506;2022-10-16T04:08:22;11.90;99.90
55083;DHT22;40978;52.850;6.506;2022-10-16T04:10:48;11.80;99.90
55083;DHT22;40978;52.850;6.506;2022-10-16T04:13:14;11.80;99.90
55083;DHT22;40978;52.850;6.506;2022-10-16T04:15:40;11.70;99.90
55083;DHT22;40978;52.850;6.506;2022-10-16T04:18:06;11.70;99.90
55083;DHT22;40978;52.850;6.506;2022-10-16T04:20:33;11.70;99.90
55083;DHT22;40978;52.850;6.506;2022-10-16T04:22:58;11.70;99.90
55083;DHT22;40978;52.850;6.506;2022-10-16T04:25:24;11.70;99.90
55083;DHT22;40978;52.850;6.506;2022-10-16T04:27:52;11.70;99.90
55083;DHT22;40978;52.850;6.506;2022-10-16T04:30:17;11.70;99.90
55083;DHT22;40978;52.850;6.506;2022-10-16T04:32:43;11.70;99.90
55083;DHT22;40978;52.850;6.506;2022-10-16T04:35:12;11.70;99.90
55083;DHT22;40978;52.850;6.506;2022-10-16T04:37:38;11.70;99.90
55083;DHT22;40978;52.850;6.506;2022-10-16T04:40:04;11.60;99.90
55083;DHT22;40978;52.850;6.506;2022-10-16T04:42:30;11.60;99.90
55083;DHT22;40978;52.850;6.506;2022-10-16T04:44:56;11.60;99.90
55083;DHT22;40978;52.850;6.506;2022-10-16T04:47:21;11.60;99.90
55083;DHT22;40978;52.850;6.506;2022-10-16T04:49:47;11.70;99.90
55083;DHT22;40978;52.850;6.506;2022-10-16T04:52:13;11.70;99.90
55083;DHT22;40978;52.850;6.506;2022-10-16T04:54:38;11.70;99.90
55083;DHT22;40978;52.850;6.506;2022-10-16T04:57:04;11.70;99.90
55083;DHT22;40978;52.850;6.506;2022-10-16T04:59:30;11.80;99.90
55083;DHT22;40978;52.850;6.506;2022-10-16T05:01:56;11.80;99.90
55083;DHT22;40978;52.850;6.506;2022-10-16T05:04:21;11.80;99.90
55083;DHT22;40978;52.850;6.506;2022-10-16T05:06:47;11.90;99.90
55083;DHT22;40978;52.850;6.506;2022-10-16T05:09:13;11.90;99.90
55083;DHT22;40978;52.850;6.506;2022-10-16T05:11:39;11.90;99.90
55083;DHT22;40978;52.850;6.506;2022-10-16T05:14:04;11.90;99.90
55083;DHT22;40978;52.850;6.506;2022-10-16T05:16:30;11.90;99.90
55083;DHT22;40978;52.850;6.506;2022-10-16T05:18:56;12.00;99.90
55083;DHT22;40978;52.850;6.506;2022-10-16T05:21:22;12.00;99.90
55083;DHT22;40978;52.850;6.506;2022-10-16T05:23:48;12.00;99.90
55083;DHT22;40978;52.850;6.506;2022-10-16T05:26:13;12.00;99.90
55083;DHT22;40978;52.850;6.506;2022-10-16T05:28:39;12.00;99.90
55083;DHT22;40978;52.850;6.506;2022-10-16T05:31:06;11.90;99.90
55083;DHT22;40978;52.850;6.506;2022-10-16T05:33:32;11.90;99.90
55083;DHT22;40978;52.850;6.506;2022-10-16T05:36:03;11.90;99.90
55083;DHT22;40978;52.850;6.506;2022-10-16T05:38:29;12.00;99.90
55083;DHT22;40978;52.850;6.506;2022-10-16T05:40:55;12.00;99.90
55083;DHT22;40978;52.850;6.506;2022-10-16T05:43:22;12.00;99.90
55083;DHT22;40978;52.850;6.506;2022-10-16T05:45:58;12.00;99.90
55083;DHT22;40978;52.850;6.506;2022-10-16T05:48:25;12.10;99.90
55083;DHT22;40978;52.850;6.506;2022-10-16T05:51:02;12.10;99.90
55083;DHT22;40978;52.850;6.506;2022-10-16T05:53:30;12.10;99.90
55083;DHT22;40978;52.850;6.506;2022-10-16T05:55:56;12.10;99.90
55083;DHT22;40978;52.850;6.506;2022-10-16T05:58:22;12.20;99.90
55083;DHT22;40978;52.850;6.506;2022-10-16T06:01:05;12.10;99.90
55083;DHT22;40978;52.850;6.506;2022-10-16T06:03:33;12.10;99.90
55083;DHT22;40978;52.850;6.506;2022-10-16T06:05:59;12.10;99.90
55083;DHT22;40978;52.850;6.506;2022-10-16T06:08:24;12.10;99.90
55083;DHT22;40978;52.850;6.506;2022-10-16T06:11:12;12.10;99.90
55083;DHT22;40978;52.850;6.506;2022-10-16T06:13:38;12.10;99.90
55083;DHT22;40978;52.850;6.506;2022-10-16T06:16:04;12.10;99.90
55083;DHT22;40978;52.850;6.506;2022-10-16T06:18:30;12.10;99.90
55083;DHT22;40978;52.850;6.506;2022-10-16T06:20:56;12.10;99.90
55083;DHT22;40978;52.850;6.506;2022-10-16T06:23:23;12.10;99.90
55083;DHT22;40978;52.850;6.506;2022-10-16T06:25:49;12.10;99.90
55083;DHT22;40978;52.850;6.506;2022-10-16T06:28:15;12.20;99.90
55083;DHT22;40978;52.850;6.506;2022-10-16T06:30:41;12.20;99.90
55083;DHT22;40978;52.850;6.506;2022-10-16T06:33:12;12.20;99.90
55083;DHT22;40978;52.850;6.506;2022-10-16T06:35:38;12.20;99.90
55083;DHT22;40978;52.850;6.506;2022-10-16T06:38:04;12.20;99.90
55083;DHT22;40978;52.850;6.506;2022-10-16T06:40:29;12.20;99.90
55083;DHT22;40978;52.850;6.506;2022-10-16T06:42:55;12.30;99.90
55083;DHT22;40978;52.850;6.506;2022-10-16T06:45:21;12.30;99.90
55083;DHT22;40978;52.850;6.506;2022-10-16T06:47:47;12.30;99.90
55083;DHT22;40978;52.850;6.506;2022-10-16T06:50:12;12.30;99.90
55083;DHT22;40978;52.850;6.506;2022-10-16T06:52:38;12.40;99.90
55083;DHT22;40978;52.850;6.506;2022-10-16T06:55:04;12.40;99.90
55083;DHT22;40978;52.850;6.506;2022-10-16T06:57:30;12.40;99.90
55083;DHT22;40978;52.850;6.506;2022-10-16T06:59:55;12.40;99.90
55083;DHT22;40978;52.850;6.506;2022-10-16T07:02:21;12.50;99.90
55083;DHT22;40978;52.850;6.506;2022-10-16T07:04:47;12.50;99.90
55083;DHT22;40978;52.850;6.506;2022-10-16T07:07:13;12.50;99.90
55083;DHT22;40978;52.850;6.506;2022-10-16T07:09:42;12.60;99.90
55083;DHT22;40978;52.850;6.506;2022-10-16T07:12:08;12.60;99.90
55083;DHT22;40978;52.850;6.506;2022-10-16T07:14:34;12.60;99.90
55083;DHT22;40978;52.850;6.506;2022-10-16T07:16:59;12.60;99.90
55083;DHT22;40978;52.850;6.506;2022-10-16T07:19:25;12.70;99.90
55083;DHT22;40978;52.850;6.506;2022-10-16T07:21:51;12.80;99.90
55083;DHT22;40978;52.850;6.506;2022-10-16T07:24:17;12.80;99.90
55083;DHT22;40978;52.850;6.506;2022-10-16T07:26:44;12.90;99.90
55083;DHT22;40978;52.850;6.506;2022-10-16T07:29:17;13.00;99.90
55083;DHT22;40978;52.850;6.506;2022-10-16T07:31:44;13.00;99.90
55083;DHT22;40978;52.850;6.506;2022-10-16T07:34:11;13.10;99.90
55083;DHT22;40978;52.850;6.506;2022-10-16T07:36:37;13.10;99.90
55083;DHT22;40978;52.850;6.506;2022-10-16T07:39:03;13.10;99.90
55083;DHT22;40978;52.850;6.506;2022-10-16T07:41:29;13.10;99.90
55083;DHT22;40978;52.850;6.506;2022-10-16T07:43:56;13.10;99.90
55083;DHT22;40978;52.850;6.506;2022-10-16T07:46:26;13.20;99.90
55083;DHT22;40978;52.850;6.506;2022-10-16T07:48:52;13.20;99.90
55083;DHT22;40978;52.850;6.506;2022-10-16T07:51:20;13.20;99.90
55083;DHT22;40978;52.850;6.506;2022-10-16T07:53:47;13.20;99.90
55083;DHT22;40978;52.850;6.506;2022-10-16T07:56:13;13.30;99.90
55083;DHT22;40978;52.850;6.506;2022-10-16T07:58:42;13.30;99.90
55083;DHT22;40978;52.850;6.506;2022-10-16T08:01:10;13.30;99.90
55083;DHT22;40978;52.850;6.506;2022-10-16T08:03:36;13.40;99.90
55083;DHT22;40978;52.850;6.506;2022-10-16T08:06:03;13.40;99.90
55083;DHT22;40978;52.850;6.506;2022-10-16T08:08:29;13.50;99.90
55083;DHT22;40978;52.850;6.506;2022-10-16T08:10:55;13.60;99.90
55083;DHT22;40978;52.850;6.506;2022-10-16T08:13:21;13.70;99.90
55083;DHT22;40978;52.850;6.506;2022-10-16T08:15:47;13.90;99.90
55083;DHT22;40978;52.850;6.506;2022-10-16T08:18:14;14.00;99.90
55083;DHT22;40978;52.850;6.506;2022-10-16T08:20:40;14.00;99.90
55083;DHT22;40978;52.850;6.506;2022-10-16T08:23:07;14.10;99.90
55083;DHT22;40978;52.850;6.506;2022-10-16T08:25:36;14.10;99.90
55083;DHT22;40978;52.850;6.506;2022-10-16T08:28:07;14.20;99.90
55083;DHT22;40978;52.850;6.506;2022-10-16T08:30:33;14.40;99.90
55083;DHT22;40978;52.850;6.506;2022-10-16T08:32:59;14.70;99.90
55083;DHT22;40978;52.850;6.506;2022-10-16T08:35:25;15.00;99.90
55083;DHT22;40978;52.850;6.506;2022-10-16T08:37:50;15.40;99.90
55083;DHT22;40978;52.850;6.506;2022-10-16T08:40:26;15.70;99.90
55083;DHT22;40978;52.850;6.506;2022-10-16T08:45:51;16.30;99.90
55083;DHT22;40978;52.850;6.506;2022-10-16T08:48:33;17.40;99.90
55083;DHT22;40978;52.850;6.506;2022-10-16T08:51:02;18.60;99.90
55083;DHT22;40978;52.850;6.506;2022-10-16T08:53:46;19.60;99.90
55083;DHT22;40978;52.850;6.506;2022-10-16T08:56:14;20.50;99.90
55083;DHT22;40978;52.850;6.506;2022-10-16T08:58:40;21.40;99.90
55083;DHT22;40978;52.850;6.506;2022-10-16T09:01:13;22.00;99.90
55083;DHT22;40978;52.850;6.506;2022-10-16T09:11:55;22.90;99.90
55083;DHT22;40978;52.850;6.506;2022-10-16T09:17:53;23.50;99.90
55083;DHT22;40978;52.850;6.506;2022-10-16T09:20:28;23.60;99.90
55083;DHT22;40978;52.850;6.506;2022-10-16T09:25:36;23.70;97.30
55083;DHT22;40978;52.850;6.506;2022-10-16T09:28:04;23.90;97.90
55083;DHT22;40978;52.850;6.506;2022-10-16T09:30:30;24.20;97.80
55083;DHT22;40978;52.850;6.506;2022-10-16T09:32:57;24.40;97.30
55083;DHT22;40978;52.850;6.506;2022-10-16T09:35:32;24.20;94.10
55083;DHT22;40978;52.850;6.506;2022-10-16T09:38:00;24.20;94.50
55083;DHT22;40978;52.850;6.506;2022-10-16T09:40:30;24.30;94.10
55083;DHT22;40978;52.850;6.506;2022-10-16T09:43:12;24.40;93.90
55083;DHT22;40978;52.850;6.506;2022-10-16T09:45:40;24.80;92.40
55083;DHT22;40978;52.850;6.506;2022-10-16T09:48:13;24.70;91.50
55083;DHT22;40978;52.850;6.506;2022-10-16T09:50:39;24.60;92.00
55083;DHT22;40978;52.850;6.506;2022-10-16T09:53:15;24.50;91.30
55083;DHT22;40978;52.850;6.506;2022-10-16T09:55:53;24.20;90.20
55083;DHT22;40978;52.850;6.506;2022-10-16T09:58:22;23.50;89.90
55083;DHT22;40978;52.850;6.506;2022-10-16T10:00:51;23.70;91.40
55083;DHT22;40978;52.850;6.506;2022-10-16T10:03:39;23.50;90.70
55083;DHT22;40978;52.850;6.506;2022-10-16T10:09:06;24.00;91.20
55083;DHT22;40978;52.850;6.506;2022-10-16T10:11:39;23.90;90.10
55083;DHT22;40978;52.850;6.506;2022-10-16T10:16:47;23.80;91.30
55083;DHT22;40978;52.850;6.506;2022-10-16T10:19:22;24.40;92.10
55083;DHT22;40978;52.850;6.506;2022-10-16T10:21:49;24.90;90.20
55083;DHT22;40978;52.850;6.506;2022-10-16T10:24:17;25.20;88.80
55083;DHT22;40978;52.850;6.506;2022-10-16T10:27:08;25.20;87.70
55083;DHT22;40978;52.850;6.506;2022-10-16T10:30:29;25.10;85.30
55083;DHT22;40978;52.850;6.506;2022-10-16T10:44:10;26.00;80.70
55083;DHT22;40978;52.850;6.506;2022-10-16T10:58:20;23.60;76.80
55083;DHT22;40978;52.850;6.506;2022-10-16T11:06:48;23.90;80.90
55083;DHT22;40978;52.850;6.506;2022-10-16T11:09:16;23.90;78.80
55083;DHT22;40978;52.850;6.506;2022-10-16T11:14:35;24.40;76.20
55083;DHT22;40978;52.850;6.506;2022-10-16T11:17:07;24.40;78.00
55083;DHT22;40978;52.850;6.506;2022-10-16T11:20:03;24.60;76.50
55083;DHT22;40978;52.850;6.506;2022-10-16T11:22:36;24.50;73.80
55083;DHT22;40978;52.850;6.506;2022-10-16T11:25:25;24.20;74.80
55083;DHT22;40978;52.850;6.506;2022-10-16T11:27:54;24.10;74.20
55083;DHT22;40978;52.850;6.506;2022-10-16T11:30:26;24.00;76.20
55083;DHT22;40978;52.850;6.506;2022-10-16T11:39:01;24.50;73.90
55083;DHT22;40978;52.850;6.506;2022-10-16T11:47:19;25.10;71.60
55083;DHT22;40978;52.850;6.506;2022-10-16T11:49:51;24.60;71.40
55083;DHT22;40978;52.850;6.506;2022-10-16T11:52:28;23.70;73.80
55083;DHT22;40978;52.850;6.506;2022-10-16T11:55:09;23.20;74.00
55083;DHT22;40978;52.850;6.506;2022-10-16T11:57:44;22.40;75.60
55083;DHT22;40978;52.850;6.506;2022-10-16T12:08:27;22.80;77.80
55083;DHT22;40978;52.850;6.506;2022-10-16T12:10:53;23.40;77.70
55083;DHT22;40978;52.850;6.506;2022-10-16T12:18:41;21.50;78.00
55083;DHT22;40978;52.850;6.506;2022-10-16T12:21:08;20.90;80.40
55083;DHT22;40978;52.850;6.506;2022-10-16T12:23:38;20.30;80.70
55083;DHT22;40978;52.850;6.506;2022-10-16T12:26:11;19.80;81.70
55083;DHT22;40978;52.850;6.506;2022-10-16T12:28:37;19.30;83.00
55083;DHT22;40978;52.850;6.506;2022-10-16T12:31:09;19.10;84.20
55083;DHT22;40978;52.850;6.506;2022-10-16T12:33:52;18.90;86.50
55083;DHT22;40978;52.850;6.506;2022-10-16T12:36:33;18.80;88.10
55083;DHT22;40978;52.850;6.506;2022-10-16T12:39:00;18.70;89.10
55083;DHT22;40978;52.850;6.506;2022-10-16T12:41:31;18.60;89.90
55083;DHT22;40978;52.850;6.506;2022-10-16T12:43:58;18.50;91.20
55083;DHT22;40978;52.850;6.506;2022-10-16T12:46:38;18.40;91.50
55083;DHT22;40978;52.850;6.506;2022-10-16T12:51:43;18.20;92.10
55083;DHT22;40978;52.850;6.506;2022-10-16T12:54:15;18.10;92.50
55083;DHT22;40978;52.850;6.506;2022-10-16T13:10:52;17.80;92.00
55083;DHT22;40978;52.850;6.506;2022-10-16T13:16:07;17.60;91.80
55083;DHT22;40978;52.850;6.506;2022-10-16T13:21:43;17.50;92.70
55083;DHT22;40978;52.850;6.506;2022-10-16T13:27:18;17.40;93.70
55083;DHT22;40978;52.850;6.506;2022-10-16T13:29:58;17.30;93.90
55083;DHT22;40978;52.850;6.506;2022-10-16T13:32:26;17.20;94.40
55083;DHT22;40978;52.850;6.506;2022-10-16T13:34:52;17.10;94.70
55083;DHT22;40978;52.850;6.506;2022-10-16T13:37:21;17.20;95.10
55083;DHT22;40978;52.850;6.506;2022-10-16T13:39:47;17.20;95.60
55083;DHT22;40978;52.850;6.506;2022-10-16T13:42:27;17.20;96.60
55083;DHT22;40978;52.850;6.506;2022-10-16T13:44:55;17.20;97.70
55083;DHT22;40978;52.850;6.506;2022-10-16T13:47:27;17.20;97.60
55083;DHT22;40978;52.850;6.506;2022-10-16T13:50:14;17.20;98.20
55083;DHT22;40978;52.850;6.506;2022-10-16T13:52:40;17.30;99.10
55083;DHT22;40978;52.850;6.506;2022-10-16T13:55:15;17.30;99.90
55083;DHT22;40978;52.850;6.506;2022-10-16T13:57:41;17.30;99.90
55083;DHT22;40978;52.850;6.506;2022-10-16T14:00:26;17.20;99.80
55083;DHT22;40978;52.850;6.506;2022-10-16T14:03:21;17.30;99.90
55083;DHT22;40978;52.850;6.506;2022-10-16T14:05:50;17.30;99.90
55083;DHT22;40978;52.850;6.506;2022-10-16T14:08:16;17.30;99.90
55083;DHT22;40978;52.850;6.506;2022-10-16T14:10:42;17.20;99.90
55083;DHT22;40978;52.850;6.506;2022-10-16T14:13:15;17.20;99.90
55083;DHT22;40978;52.850;6.506;2022-10-16T14:15:46;17.20;99.90
55083;DHT22;40978;52.850;6.506;2022-10-16T14:18:19;17.20;99.90
55083;DHT22;40978;52.850;6.506;2022-10-16T14:20:45;17.00;99.90
55083;DHT22;40978;52.850;6.506;2022-10-16T14:23:30;17.00;99.90
55083;DHT22;40978;52.850;6.506;2022-10-16T14:28:34;16.90;99.90
55083;DHT22;40978;52.850;6.506;2022-10-16T14:31:02;16.90;99.90
55083;DHT22;40978;52.850;6.506;2022-10-16T14:36:14;16.80;99.90
55083;DHT22;40978;52.850;6.506;2022-10-16T14:38:43;16.80;99.90
55083;DHT22;40978;52.850;6.506;2022-10-16T14:41:13;16.70;99.90
55083;DHT22;40978;52.850;6.506;2022-10-16T14:43:41;16.70;99.90
55083;DHT22;40978;52.850;6.506;2022-10-16T14:46:15;16.70;99.90
55083;DHT22;40978;52.850;6.506;2022-10-16T14:48:52;16.70;99.90
55083;DHT22;40978;52.850;6.506;2022-10-16T14:51:20;16.60;99.90
55083;DHT22;40978;52.850;6.506;2022-10-16T14:53:46;16.60;99.90
55083;DHT22;40978;52.850;6.506;2022-10-16T14:56:21;16.60;99.90
55083;DHT22;40978;52.850;6.506;2022-10-16T14:58:49;16.60;99.90
55083;DHT22;40978;52.850;6.506;2022-10-16T15:01:15;16.50;99.90
55083;DHT22;40978;52.850;6.506;2022-10-16T15:03:41;16.50;99.90
55083;DHT22;40978;52.850;6.506;2022-10-16T15:06:14;16.40;99.90
55083;DHT22;40978;52.850;6.506;2022-10-16T15:08:40;16.40;99.90
55083;DHT22;40978;52.850;6.506;2022-10-16T15:11:18;16.40;99.90
55083;DHT22;40978;52.850;6.506;2022-10-16T15:13:44;16.40;99.90
55083;DHT22;40978;52.850;6.506;2022-10-16T15:16:15;16.30;99.90
55083;DHT22;40978;52.850;6.506;2022-10-16T15:18:42;16.30;99.90
55083;DHT22;40978;52.850;6.506;2022-10-16T15:21:25;16.30;99.90
55083;DHT22;40978;52.850;6.506;2022-10-16T15:23:52;16.20;99.90
55083;DHT22;40978;52.850;6.506;2022-10-16T15:26:18;16.10;99.90
55083;DHT22;40978;52.850;6.506;2022-10-16T15:28:44;16.10;99.90
55083;DHT22;40978;52.850;6.506;2022-10-16T15:31:09;16.00;99.90
55083;DHT22;40978;52.850;6.506;2022-10-16T15:33:35;16.00;99.90
55083;DHT22;40978;52.850;6.506;2022-10-16T15:36:02;16.00;99.90
55083;DHT22;40978;52.850;6.506;2022-10-16T15:38:28;15.90;99.90
55083;DHT22;40978;52.850;6.506;2022-10-16T15:40:55;15.90;99.90
55083;DHT22;40978;52.850;6.506;2022-10-16T15:43:21;15.80;99.90
55083;DHT22;40978;52.850;6.506;2022-10-16T15:46:03;15.70;99.90
55083;DHT22;40978;52.850;6.506;2022-10-16T15:48:30;15.70;99.90
55083;DHT22;40978;52.850;6.506;2022-10-16T15:50:56;15.60;99.90
55083;DHT22;40978;52.850;6.506;2022-10-16T15:53:22;15.50;99.90
55083;DHT22;40978;52.850;6.506;2022-10-16T15:55:48;15.40;99.90
55083;DHT22;40978;52.850;6.506;2022-10-16T15:58:13;15.40;99.90
55083;DHT22;40978;52.850;6.506;2022-10-16T16:00:39;15.30;99.90
55083;DHT22;40978;52.850;6.506;2022-10-16T16:03:05;15.20;99.90
55083;DHT22;40978;52.850;6.506;2022-10-16T16:05:30;15.20;99.90
55083;DHT22;40978;52.850;6.506;2022-10-16T16:07:57;15.10;99.90
55083;DHT22;40978;52.850;6.506;2022-10-16T16:10:22;15.00;99.90
55083;DHT22;40978;52.850;6.506;2022-10-16T16:12:49;14.90;99.90
55083;DHT22;40978;52.850;6.506;2022-10-16T16:15:18;14.80;99.90
55083;DHT22;40978;52.850;6.506;2022-10-16T16:17:44;14.80;99.90
55083;DHT22;40978;52.850;6.506;2022-10-16T16:20:10;14.70;99.90
55083;DHT22;40978;52.850;6.506;2022-10-16T16:22:35;14.60;99.90
55083;DHT22;40978;52.850;6.506;2022-10-16T16:25:01;14.50;99.90
55083;DHT22;40978;52.850;6.506;2022-10-16T16:27:27;14.40;99.90
55083;DHT22;40978;52.850;6.506;2022-10-16T16:29:55;14.40;99.90
55083;DHT22;40978;52.850;6.506;2022-10-16T16:32:21;14.30;99.90
55083;DHT22;40978;52.850;6.506;2022-10-16T16:34:47;14.30;99.90
55083;DHT22;40978;52.850;6.506;2022-10-16T16:37:13;14.20;99.90
55083;DHT22;40978;52.850;6.506;2022-10-16T16:39:39;14.10;99.90
55083;DHT22;40978;52.850;6.506;2022-10-16T16:42:05;14.00;99.90
55083;DHT22;40978;52.850;6.506;2022-10-16T16:44:33;13.90;99.90
55083;DHT22;40978;52.850;6.506;2022-10-16T16:46:58;13.90;99.90
55083;DHT22;40978;52.850;6.506;2022-10-16T16:49:24;13.80;99.90
55083;DHT22;40978;52.850;6.506;2022-10-16T16:51:50;13.70;99.90
55083;DHT22;40978;52.850;6.506;2022-10-16T16:54:15;13.60;99.90
55083;DHT22;40978;52.850;6.506;2022-10-16T16:56:41;13.60;99.90
55083;DHT22;40978;52.850;6.506;2022-10-16T16:59:13;13.50;99.90
55083;DHT22;40978;52.850;6.506;2022-10-16T17:01:39;13.40;99.90
55083;DHT22;40978;52.850;6.506;2022-10-16T17:04:05;13.30;99.90
55083;DHT22;40978;52.850;6.506;2022-10-16T17:06:31;13.30;99.90
55083;DHT22;40978;52.850;6.506;2022-10-16T17:08:57;13.20;99.90
55083;DHT22;40978;52.850;6.506;2022-10-16T17:11:25;13.20;99.90
55083;DHT22;40978;52.850;6.506;2022-10-16T17:13:52;13.10;99.90
55083;DHT22;40978;52.850;6.506;2022-10-16T17:16:19;13.00;99.90
55083;DHT22;40978;52.850;6.506;2022-10-16T17:18:45;12.90;99.90
55083;DHT22;40978;52.850;6.506;2022-10-16T17:21:11;12.80;99.90
55083;DHT22;40978;52.850;6.506;2022-10-16T17:23:38;12.80;99.90
55083;DHT22;40978;52.850;6.506;2022-10-16T17:26:17;12.70;99.90
55083;DHT22;40978;52.850;6.506;2022-10-16T17:28:43;12.70;99.90
55083;DHT22;40978;52.850;6.506;2022-10-16T17:31:10;12.50;99.90
55083;DHT22;40978;52.850;6.506;2022-10-16T17:33:37;12.50;99.90
55083;DHT22;40978;52.850;6.506;2022-10-16T17:36:03;12.40;99.90
55083;DHT22;40978;52.850;6.506;2022-10-16T17:38:29;12.40;99.90
55083;DHT22;40978;52.850;6.506;2022-10-16T17:40:54;12.30;99.90
55083;DHT22;40978;52.850;6.506;2022-10-16T17:43:20;12.20;99.90
55083;DHT22;40978;52.850;6.506;2022-10-16T17:45:46;12.20;99.90
55083;DHT22;40978;52.850;6.506;2022-10-16T17:48:12;12.10;99.90